createdAt,value
2022-09-17T00:01:05.257Z,94581.09
2022-09-17T00:03:34.273Z,94585.56
2022-09-17T00:06:10.594Z,94588.56
2022-09-17T00:08:39.156Z,94585.06
2022-09-17T00:11:08.461Z,94575.69
2022-09-17T00:13:35.215Z,94584.19
2022-09-17T00:16:02.308Z,94584.03
2022-09-17T00:18:29.038Z,94582.22
2022-09-17T00:20:55.784Z,94586.88
2022-09-17T00:23:22.516Z,94582.47
2022-09-17T00:25:49.242Z,94578.44
2022-09-17T00:28:16.010Z,94577.44
2022-09-17T00:30:45.667Z,94588.97
2022-09-17T00:33:15.448Z,94582.50
2022-09-17T00:35:42.890Z,94595.16
2022-09-17T00:38:10.141Z,94599.81
2022-09-17T00:40:37.677Z,94593.72
2022-09-17T00:43:04.880Z,94597.59
2022-09-17T00:45:32.375Z,94606.63
2022-09-17T00:48:05.397Z,94601.38
2022-09-17T00:50:37.130Z,94601.75
2022-09-17T00:53:15.921Z,94605.47
2022-09-17T00:56:03.155Z,94605.38
2022-09-17T00:58:33.796Z,94598.00
2022-09-17T01:01:02.741Z,94598.81
2022-09-17T01:03:29.779Z,94592.84
2022-09-17T01:06:02.374Z,94593.66
2022-09-17T01:08:49.101Z,94592.69
2022-09-17T01:11:51.844Z,94595.13
2022-09-17T01:14:37.245Z,94589.50
2022-09-17T01:17:34.103Z,94595.16
2022-09-17T01:20:28.722Z,94594.38
2022-09-17T01:23:27.913Z,94598.34
2022-09-17T01:26:36.533Z,94610.44
2022-09-17T01:29:38.712Z,94608.78
2022-09-17T01:32:16.761Z,94603.25
2022-09-17T01:35:07.227Z,94611.78
2022-09-17T01:37:42.618Z,94604.00
2022-09-17T01:40:25.155Z,94607.06
2022-09-17T01:43:04.316Z,94604.31
2022-09-17T01:45:39.369Z,94601.25
2022-09-17T01:48:27.648Z,94600.22
2022-09-17T01:51:11.582Z,94608.25
2022-09-17T01:53:44.561Z,94597.97
2022-09-17T01:56:16.859Z,94600.13
2022-09-17T01:58:54.646Z,94601.88
2022-09-17T02:01:24.309Z,94599.47
2022-09-17T02:04:02.401Z,94607.19
2022-09-17T02:06:37.761Z,94602.19
2022-09-17T02:09:22.442Z,94612.75
2022-09-17T02:11:59.125Z,94612.91
2022-09-17T02:14:41.391Z,94605.03
2022-09-17T02:17:25.113Z,94600.19
2022-09-17T02:19:53.658Z,94606.44
2022-09-17T02:22:47.931Z,94601.03
2022-09-17T02:25:26.687Z,94606.66
2022-09-17T02:28:06.222Z,94595.47
2022-09-17T02:30:32.933Z,94592.09
2022-09-17T02:33:02.148Z,94582.16
2022-09-17T02:35:31.188Z,94579.44
2022-09-17T02:37:57.855Z,94578.63
2022-09-17T02:40:28.051Z,94572.00
2022-09-17T02:43:19.641Z,94571.06
2022-09-17T02:46:10.485Z,94571.16
2022-09-17T02:49:08.742Z,94577.25
2022-09-17T02:51:43.030Z,94575.63
2022-09-17T02:54:28.045Z,94577.22
2022-09-17T02:57:01.542Z,94574.47
2022-09-17T02:59:49.343Z,94574.72
2022-09-17T03:02:43.927Z,94566.34
2022-09-17T03:05:11.856Z,94561.69
2022-09-17T03:07:39.218Z,94562.53
2022-09-17T03:10:06.766Z,94561.28
2022-09-17T03:12:33.375Z,94564.91
2022-09-17T03:15:01.111Z,94562.50
2022-09-17T03:17:27.699Z,94557.94
2022-09-17T03:19:54.668Z,94558.75
2022-09-17T03:22:21.643Z,94564.91
2022-09-17T03:24:48.697Z,94563.47
2022-09-17T03:27:15.473Z,94562.34
2022-09-17T03:29:42.549Z,94558.59
2022-09-17T03:32:09.553Z,94568.53
2022-09-17T03:34:36.148Z,94562.56
2022-09-17T03:37:03.157Z,94563.47
2022-09-17T03:39:30.513Z,94562.06
2022-09-17T03:41:57.110Z,94561.63
2022-09-17T03:44:23.871Z,94569.63
2022-09-17T03:46:51.766Z,94572.72
2022-09-17T03:49:18.441Z,94568.69
2022-09-17T03:51:45.503Z,94566.03
2022-09-17T03:54:12.344Z,94572.34
2022-09-17T03:56:39.127Z,94571.47
2022-09-17T03:59:06.311Z,94571.53
2022-09-17T04:01:33.015Z,94570.09
2022-09-17T04:03:59.961Z,94564.78
2022-09-17T04:06:26.701Z,94566.84
2022-09-17T04:08:53.531Z,94567.63
2022-09-17T04:11:20.356Z,94566.03
2022-09-17T04:13:47.296Z,94562.44
2022-09-17T04:16:14.814Z,94572.06
2022-09-17T04:18:41.503Z,94574.31
2022-09-17T04:21:08.448Z,94566.91
2022-09-17T04:23:35.172Z,94564.19
2022-09-17T04:26:01.849Z,94558.09
2022-09-17T04:28:28.432Z,94563.63
2022-09-17T04:30:55.319Z,94561.72
2022-09-17T04:33:22.144Z,94562.66
2022-09-17T04:35:48.823Z,94562.81
2022-09-17T04:38:18.501Z,94566.19
2022-09-17T04:40:46.671Z,94567.59
2022-09-17T04:43:14.017Z,94579.41
2022-09-17T04:45:40.672Z,94570.66
2022-09-17T04:48:07.413Z,94571.44
2022-09-17T04:50:34.195Z,94579.69
2022-09-17T04:53:00.741Z,94586.22
2022-09-17T04:55:27.729Z,94593.41
2022-09-17T04:57:54.404Z,94608.53
2022-09-17T05:00:23.248Z,94626.91
2022-09-17T05:02:52.211Z,94634.59
2022-09-17T05:05:20.063Z,94637.19
2022-09-17T05:07:46.940Z,94642.47
2022-09-17T05:10:17.096Z,94647.91
2022-09-17T05:12:57.159Z,94650.53
2022-09-17T05:15:25.094Z,94654.81
2022-09-17T05:17:52.367Z,94665.25
2022-09-17T05:20:20.149Z,94672.50
2022-09-17T05:22:49.602Z,94678.34
2022-09-17T05:25:18.451Z,94682.41
2022-09-17T05:27:45.611Z,94689.25
2022-09-17T05:30:13.509Z,94691.81
2022-09-17T05:32:40.822Z,94693.19
2022-09-17T05:35:09.062Z,94710.81
2022-09-17T05:37:37.039Z,94705.56
2022-09-17T05:40:08.791Z,94705.28
2022-09-17T05:42:35.860Z,94700.53
2022-09-17T05:45:02.858Z,94698.34
2022-09-17T05:47:29.608Z,94707.66
2022-09-17T05:49:56.569Z,94704.00
2022-09-17T05:52:28.072Z,94708.00
2022-09-17T05:54:55.820Z,94711.81
2022-09-17T05:57:23.119Z,94713.91
2022-09-17T05:59:50.474Z,94715.50
2022-09-17T06:02:17.853Z,94714.22
2022-09-17T06:04:44.740Z,94715.81
2022-09-17T06:07:11.678Z,94713.41
2022-09-17T06:09:40.891Z,94714.19
2022-09-17T06:12:08.084Z,94715.00
2022-09-17T06:14:35.524Z,94719.28
2022-09-17T06:17:02.181Z,94721.06
2022-09-17T06:19:28.774Z,94729.19
2022-09-17T06:21:55.531Z,94731.75
2022-09-17T06:24:22.243Z,94741.72
2022-09-17T06:26:48.874Z,94748.50
2022-09-17T06:29:15.618Z,94742.03
2022-09-17T06:31:44.921Z,94746.78
2022-09-17T06:34:12.670Z,94746.38
2022-09-17T06:36:39.638Z,94744.38
2022-09-17T06:39:07.260Z,94743.59
2022-09-17T06:41:34.510Z,94739.13
2022-09-17T06:44:05.591Z,94750.16
2022-09-17T06:46:35.061Z,94757.78
2022-09-17T06:49:04.464Z,94755.66
2022-09-17T06:51:31.768Z,94757.56
2022-09-17T06:53:58.662Z,94754.13
2022-09-17T06:56:25.253Z,94760.22
2022-09-17T06:58:53.048Z,94744.22
2022-09-17T07:01:20.113Z,94745.19
2022-09-17T07:03:49.207Z,94744.09
2022-09-17T07:06:15.849Z,94740.50
2022-09-17T07:08:42.411Z,94746.81
2022-09-17T07:11:09.098Z,94743.16
2022-09-17T07:13:35.815Z,94743.31
2022-09-17T07:16:05.138Z,94739.66
2022-09-17T07:18:32.990Z,94735.78
2022-09-17T07:21:01.454Z,94741.69
2022-09-17T07:23:31.546Z,94743.91
2022-09-17T07:26:00.892Z,94741.41
2022-09-17T07:28:28.850Z,94735.53
2022-09-17T07:30:56.921Z,94741.84
2022-09-17T07:33:26.719Z,94747.22
2022-09-17T07:36:01.508Z,94734.19
2022-09-17T07:38:30.648Z,94742.19
2022-09-17T07:40:58.175Z,94740.13
2022-09-17T07:43:32.420Z,94734.72
2022-09-17T07:46:01.270Z,94727.38
2022-09-17T07:48:30.307Z,94720.84
2022-09-17T07:50:59.664Z,94717.94
2022-09-17T07:53:28.248Z,94719.03
2022-09-17T07:56:11.582Z,94711.34
2022-09-17T07:58:39.520Z,94716.53
2022-09-17T08:01:12.119Z,94725.56
2022-09-17T08:03:40.337Z,94725.88
2022-09-17T08:06:09.076Z,94733.09
2022-09-17T08:08:38.226Z,94742.53
2022-09-17T08:11:08.045Z,94745.53
2022-09-17T08:13:35.055Z,94751.56
2022-09-17T08:16:04.396Z,94738.88
2022-09-17T08:18:32.146Z,94741.63
2022-09-17T08:21:00.385Z,94738.22
2022-09-17T08:23:28.058Z,94749.97
2022-09-17T08:26:00.517Z,94739.47
2022-09-17T08:28:30.089Z,94741.28
2022-09-17T08:31:10.004Z,94742.41
2022-09-17T08:33:39.189Z,94738.72
2022-09-17T08:36:08.355Z,94739.66
2022-09-17T08:38:38.435Z,94737.06
2022-09-17T08:41:09.940Z,94735.47
2022-09-17T08:44:08.876Z,94742.22
2022-09-17T08:46:51.406Z,94743.38
2022-09-17T08:49:27.329Z,94749.34
2022-09-17T08:52:31.671Z,94754.47
2022-09-17T08:55:23.916Z,94748.41
2022-09-17T08:58:03.290Z,94757.13
2022-09-17T09:00:39.611Z,94761.50
2022-09-17T09:03:06.463Z,94762.88
2022-09-17T09:05:46.398Z,94762.59
2022-09-17T09:08:36.975Z,94761.81
2022-09-17T09:11:15.388Z,94765.50
2022-09-17T09:13:49.421Z,94771.19
2022-09-17T09:16:18.307Z,94767.44
2022-09-17T09:18:47.111Z,94763.09
2022-09-17T09:21:44.705Z,94776.44
2022-09-17T09:24:26.332Z,94774.47
2022-09-17T09:26:59.007Z,94774.50
2022-09-17T09:29:31.396Z,94782.53
2022-09-17T09:32:15.580Z,94782.09
2022-09-17T09:34:44.143Z,94779.06
2022-09-17T09:37:34.973Z,94785.69
2022-09-17T09:40:24.795Z,94785.19
2022-09-17T09:42:55.239Z,94788.53
2022-09-17T09:45:44.021Z,94789.84
2022-09-17T09:48:30.685Z,94789.41
2022-09-17T09:51:07.892Z,94784.81
2022-09-17T09:53:46.817Z,94794.09
2022-09-17T09:56:36.070Z,94789.91
2022-09-17T09:59:07.802Z,94786.66
2022-09-17T10:01:40.885Z,94785.03
2022-09-17T10:04:26.299Z,94788.50
2022-09-17T10:06:59.926Z,94785.06
2022-09-17T10:09:28.223Z,94794.78
2022-09-17T10:12:02.552Z,94794.88
2022-09-17T10:14:36.072Z,94798.84
2022-09-17T10:17:21.191Z,94790.84
2022-09-17T10:20:00.285Z,94797.03
2022-09-17T10:22:31.834Z,94791.19
2022-09-17T10:25:01.128Z,94797.00
2022-09-17T10:27:29.113Z,94789.97
2022-09-17T10:30:24.700Z,94793.41
2022-09-17T10:33:14.987Z,94783.19
2022-09-17T10:35:55.610Z,94779.53
2022-09-17T10:38:32.911Z,94786.63
2022-09-17T10:41:26.209Z,94775.38
2022-09-17T10:43:54.430Z,94773.91
2022-09-17T10:46:29.619Z,94774.06
2022-09-17T10:49:08.658Z,94782.44
2022-09-17T10:51:37.312Z,94791.94
2022-09-17T10:54:12.961Z,94824.53
2022-09-17T10:56:47.066Z,94816.03
2022-09-17T10:59:47.590Z,94812.16
2022-09-17T11:02:32.000Z,94821.53
2022-09-17T11:05:10.171Z,94823.28
2022-09-17T11:07:48.277Z,94828.81
2022-09-17T11:10:28.009Z,94824.09
2022-09-17T11:12:57.232Z,94820.25
2022-09-17T11:15:53.084Z,94825.34
2022-09-17T11:18:51.324Z,94814.56
2022-09-17T11:21:26.502Z,94816.97
2022-09-17T11:24:21.269Z,94808.53
2022-09-17T11:27:06.495Z,94805.28
2022-09-17T11:30:33.540Z,94805.56
2022-09-17T11:33:07.317Z,94800.47
2022-09-17T11:36:04.371Z,94796.94
2022-09-17T11:38:43.447Z,94803.31
2022-09-17T11:41:31.950Z,94799.66
2022-09-17T11:44:24.687Z,94790.13
2022-09-17T11:47:17.572Z,94787.09
2022-09-17T11:50:00.670Z,94788.84
2022-09-17T11:52:35.314Z,94789.88
2022-09-17T11:55:18.933Z,94790.03
2022-09-17T11:57:47.282Z,94788.78
2022-09-17T14:55:57.795Z,94791.53
2022-09-17T14:58:36.396Z,94792.41
2022-09-17T15:01:03.909Z,94802.88
2022-09-17T15:03:30.847Z,94807.03
2022-09-17T15:06:01.868Z,94819.31
2022-09-17T15:08:30.651Z,94824.06
2022-09-17T15:11:02.393Z,94825.09
2022-09-17T15:13:41.159Z,94807.66
2022-09-17T15:16:20.039Z,94809.38
2022-09-17T15:18:55.595Z,94805.56
2022-09-17T15:21:42.689Z,94806.50
2022-09-17T15:24:35.954Z,94806.72
2022-09-17T15:27:25.516Z,94803.06
2022-09-17T15:30:21.262Z,94803.72
2022-09-17T15:32:57.060Z,94803.06
2022-09-17T15:35:30.515Z,94800.69
2022-09-17T15:38:22.410Z,94806.13
2022-09-17T15:40:49.848Z,94811.06
2022-09-17T15:43:17.821Z,94810.31
2022-09-17T15:45:44.845Z,94821.19
2022-09-17T15:48:35.515Z,94813.16
2022-09-17T15:51:04.140Z,94816.09
2022-09-17T15:53:34.368Z,94823.81
2022-09-17T15:56:13.324Z,94820.16
2022-09-17T15:58:43.271Z,94824.66
2022-09-17T16:01:16.609Z,94818.69
2022-09-17T16:03:46.640Z,94823.66
2022-09-17T16:06:19.801Z,94826.44
2022-09-17T16:09:02.029Z,94840.03
2022-09-17T16:11:31.151Z,94845.28
2022-09-17T16:14:01.150Z,94846.72
2022-09-17T16:16:36.543Z,94846.78
2022-09-17T16:19:05.924Z,94853.25
2022-09-17T16:21:32.909Z,94856.34
2022-09-17T16:23:59.504Z,94847.28
2022-09-17T16:26:32.628Z,94854.94
2022-09-17T16:29:06.449Z,94850.38
2022-09-17T16:31:34.363Z,94862.16
2022-09-17T16:34:03.183Z,94855.34
2022-09-17T16:36:32.897Z,94857.25
2022-09-17T16:38:59.640Z,94849.84
2022-09-17T16:41:26.498Z,94852.03
2022-09-17T16:43:53.717Z,94853.75
2022-09-17T16:46:20.438Z,94854.69
2022-09-17T16:48:50.574Z,94855.13
2022-09-17T16:51:18.977Z,94850.94
2022-09-17T16:53:46.140Z,94849.34
2022-09-17T16:56:15.677Z,94852.06
2022-09-17T16:58:43.536Z,94850.31
2022-09-17T17:01:16.378Z,94856.81
2022-09-17T17:03:46.020Z,94851.13
2022-09-17T17:06:17.370Z,94857.81
2022-09-17T17:08:46.140Z,94862.47
2022-09-17T17:11:13.685Z,94857.72
2022-09-17T17:13:43.390Z,94864.63
2022-09-17T17:16:13.114Z,94868.81
2022-09-17T17:18:45.130Z,94875.00
2022-09-17T17:21:14.838Z,94879.09
2022-09-17T17:23:47.423Z,94887.19
2022-09-17T17:26:18.053Z,94879.22
2022-09-17T17:28:45.010Z,94883.56
2022-09-17T17:31:13.547Z,94885.31
2022-09-17T17:33:41.380Z,94883.94
2022-09-17T17:36:08.695Z,94885.72
2022-09-17T17:38:36.935Z,94889.38
2022-09-17T17:41:11.743Z,94891.53
2022-09-17T17:43:39.593Z,94886.50
2022-09-17T17:46:09.418Z,94895.97
2022-09-17T17:48:37.153Z,94896.72
2022-09-17T17:51:09.120Z,94896.16
2022-09-17T17:53:36.967Z,94905.72
2022-09-17T17:56:06.702Z,94903.56
2022-09-17T17:58:34.656Z,94904.75
2022-09-17T18:01:11.086Z,94905.53
2022-09-17T18:03:38.039Z,94918.47
2022-09-17T18:06:07.004Z,94914.28
2022-09-17T18:08:37.475Z,94916.16
2022-09-17T18:11:05.406Z,94918.59
2022-09-17T18:13:32.348Z,94914.97
2022-09-17T18:16:01.710Z,94920.28
2022-09-17T18:18:47.439Z,94919.72
2022-09-17T18:21:19.888Z,94925.13
2022-09-17T18:23:47.661Z,94933.91
2022-09-17T18:26:28.798Z,94935.72
2022-09-17T18:28:56.497Z,94938.84
2022-09-17T18:31:25.701Z,94939.91
2022-09-17T18:34:00.870Z,94940.97
2022-09-17T18:36:30.107Z,94947.34
2022-09-17T18:39:16.738Z,94947.56
2022-09-17T18:41:49.660Z,94950.03
2022-09-17T18:44:19.703Z,94953.03
2022-09-17T18:46:48.259Z,94961.66
2022-09-17T18:49:15.657Z,94968.97
2022-09-17T18:51:42.622Z,94959.53
2022-09-17T18:54:12.918Z,94962.47
2022-09-17T18:56:42.181Z,94957.47
2022-09-17T18:59:10.288Z,94966.41
2022-09-17T19:01:37.763Z,94961.28
2022-09-17T19:04:07.992Z,94964.78
2022-09-17T19:06:36.736Z,94961.97
2022-09-17T19:09:05.335Z,94959.53
2022-09-17T19:11:36.290Z,94965.47
2022-09-17T19:14:03.362Z,94965.75
2022-09-17T19:16:30.465Z,94964.16
2022-09-17T19:18:57.339Z,94964.69
2022-09-17T19:21:26.020Z,94965.41
2022-09-17T19:23:52.895Z,94959.75
2022-09-17T19:26:23.203Z,94960.28
2022-09-17T19:29:05.877Z,94962.34
2022-09-17T19:31:33.066Z,94957.75
2022-09-17T19:34:00.308Z,94966.41
2022-09-17T19:36:28.517Z,94965.72
2022-09-17T19:38:55.741Z,94960.47
2022-09-17T19:41:25.754Z,94964.78
2022-09-17T19:43:54.828Z,94964.25
2022-09-17T19:46:24.897Z,94956.97
2022-09-17T19:48:54.130Z,94966.44
2022-09-17T19:51:22.999Z,94970.88
2022-09-17T19:53:50.462Z,94951.56
2022-09-17T19:56:23.183Z,94962.75
2022-09-17T19:58:50.622Z,94955.47
2022-09-17T20:01:18.196Z,94952.38
2022-09-17T20:03:47.410Z,94959.53
2022-09-17T20:06:16.926Z,94959.94
2022-09-17T20:08:47.473Z,94959.94
2022-09-17T20:11:19.009Z,94959.66
2022-09-17T20:13:45.675Z,94966.59
2022-09-17T20:16:16.115Z,94962.22
2022-09-17T20:18:46.944Z,94964.13
2022-09-17T20:21:22.268Z,94961.56
2022-09-17T20:23:49.099Z,94960.63
2022-09-17T20:26:17.075Z,94973.72
2022-09-17T20:28:44.622Z,94971.97
2022-09-17T20:31:15.743Z,94965.22
2022-09-17T20:33:43.566Z,94974.81
2022-09-17T20:36:15.867Z,94976.19
2022-09-17T20:41:37.294Z,94968.47
2022-09-17T20:44:04.991Z,94960.34
2022-09-17T20:46:31.946Z,94961.00
2022-09-17T20:48:59.402Z,94954.28
2022-09-17T20:51:28.856Z,94958.97
2022-09-17T20:53:57.536Z,94948.16
2022-09-17T20:56:30.341Z,94941.28
2022-09-17T20:59:08.647Z,94944.91
2022-09-17T21:01:38.204Z,94935.47
2022-09-17T21:04:09.104Z,94935.31
2022-09-17T21:06:38.824Z,94931.41
2022-09-17T21:09:07.767Z,94930.19
2022-09-17T21:11:35.350Z,94930.88
2022-09-17T21:14:03.823Z,94939.38
2022-09-17T21:16:32.217Z,94950.06
2022-09-17T21:19:02.683Z,94948.31
2022-09-17T21:21:34.877Z,94948.03
2022-09-17T21:24:03.025Z,94938.97
2022-09-17T21:26:30.544Z,94948.59
2022-09-17T21:28:57.739Z,94952.91
2022-09-17T21:31:33.469Z,94946.13
2022-09-17T21:34:11.124Z,94956.69
2022-09-17T21:36:39.310Z,94958.44
2022-09-17T21:39:17.299Z,94959.78
2022-09-17T21:41:45.488Z,94963.31
2022-09-17T21:44:12.971Z,94960.88
2022-09-17T21:46:42.553Z,94969.13
2022-09-17T21:49:10.220Z,94975.88
2022-09-17T21:51:42.426Z,94971.72
2022-09-17T21:54:16.073Z,94978.31
2022-09-17T21:56:46.439Z,94981.41
2022-09-17T21:59:16.859Z,94978.19
2022-09-17T22:01:47.127Z,94974.38
2022-09-17T22:04:18.033Z,94984.91
2022-09-17T22:06:46.793Z,94983.56
2022-09-17T22:09:17.603Z,94980.44
2022-09-17T22:11:46.555Z,94986.91
2022-09-17T22:14:16.382Z,94990.28
2022-09-17T22:16:45.739Z,95000.09
2022-09-17T22:19:16.499Z,94998.88
2022-09-17T22:21:48.811Z,95003.28
2022-09-17T22:24:19.554Z,95011.22
2022-09-17T22:26:54.101Z,95011.88
2022-09-17T22:29:23.818Z,95016.19
2022-09-17T22:31:50.864Z,95007.63
2022-09-17T22:34:20.747Z,95009.06
2022-09-17T22:36:52.276Z,95022.66
2022-09-17T22:39:22.144Z,95018.22
2022-09-17T22:41:50.658Z,95017.28
2022-09-17T22:47:00.606Z,95025.38
2022-09-17T22:49:28.684Z,95024.84
2022-09-17T22:51:55.690Z,95035.09
2022-09-17T22:54:23.722Z,95030.44
2022-09-17T22:56:50.646Z,95022.53
2022-09-17T22:59:19.269Z,95028.03
2022-09-17T23:01:45.945Z,95030.09
2022-09-17T23:04:13.487Z,95028.59
2022-09-17T23:06:44.523Z,95022.41
2022-09-17T23:09:13.792Z,95026.63
2022-09-17T23:11:40.748Z,95029.31
2022-09-17T23:14:09.894Z,95027.66
2022-09-17T23:16:39.707Z,95031.72
2022-09-17T23:19:10.219Z,95035.28
2022-09-17T23:21:38.075Z,95038.97
2022-09-17T23:24:04.814Z,95038.81
2022-09-17T23:26:31.878Z,95040.53
2022-09-17T23:29:04.604Z,95041.25
2022-09-17T23:31:35.230Z,95041.50
2022-09-17T23:34:02.457Z,95046.91
2022-09-17T23:36:33.404Z,95037.34
2022-09-17T23:39:04.434Z,95042.59
2022-09-17T23:41:33.393Z,95041.22
2022-09-17T23:44:02.014Z,95050.59
2022-09-17T23:46:31.772Z,95048.25
2022-09-17T23:49:01.863Z,95045.13
2022-09-17T23:51:31.403Z,95056.50
2022-09-17T23:53:59.378Z,95053.69
2022-09-17T23:56:28.129Z,95052.69
2022-09-17T23:58:59.091Z,95057.00
